sensor_id;sensor_type;location;lat;lon;timestamp;temperature;humidity
52895;DHT22;38759;53.396;6.722;2022-10-26T00:01:30;10.10;99.90
52895;DHT22;38759;53.396;6.722;2022-10-26T00:03:56;10.00;99.90
52895;DHT22;38759;53.396;6.722;2022-10-26T00:06:23;10.00;99.90
52895;DHT22;38759;53.396;6.722;2022-10-26T00:08:50;10.00;99.90
52895;DHT22;38759;53.396;6.722;2022-10-26T00:11:17;10.00;99.90
52895;DHT22;38759;53.396;6.722;2022-10-26T00:13:44;10.00;99.90
52895;DHT22;38759;53.396;6.722;2022-10-26T00:16:16;9.90;99.90
52895;DHT22;38759;53.396;6.722;2022-10-26T00:18:43;9.90;99.90
52895;DHT22;38759;53.396;6.722;2022-10-26T00:21:10;9.90;99.90
52895;DHT22;38759;53.396;6.722;2022-10-26T00:23:35;9.90;99.90
52895;DHT22;38759;53.396;6.722;2022-10-26T00:26:02;9.90;99.90
52895;DHT22;38759;53.396;6.722;2022-10-26T00:28:28;9.90;99.90
52895;DHT22;38759;53.396;6.722;2022-10-26T00:30:54;10.00;99.90
52895;DHT22;38759;53.396;6.722;2022-10-26T00:33:19;9.90;99.90
52895;DHT22;38759;53.396;6.722;2022-10-26T00:35:52;10.00;99.90
52895;DHT22;38759;53.396;6.722;2022-10-26T00:38:19;9.90;99.90
52895;DHT22;38759;53.396;6.722;2022-10-26T00:40:44;10.00;99.90
52895;DHT22;38759;53.396;6.722;2022-10-26T00:45:47;9.80;99.90
52895;DHT22;38759;53.396;6.722;2022-10-26T00:48:23;9.80;99.90
52895;DHT22;38759;53.396;6.722;2022-10-26T00:50:49;9.80;99.90
52895;DHT22;38759;53.396;6.722;2022-10-26T00:53:15;9.70;99.90
52895;DHT22;38759;53.396;6.722;2022-10-26T00:55:46;9.70;99.90
52895;DHT22;38759;53.396;6.722;2022-10-26T00:58:13;9.70;99.90
52895;DHT22;38759;53.396;6.722;2022-10-26T01:00:40;9.70;99.90
52895;DHT22;38759;53.396;6.722;2022-10-26T01:03:07;9.60;99.90
52895;DHT22;38759;53.396;6.722;2022-10-26T01:05:36;9.60;99.90
52895;DHT22;38759;53.396;6.722;2022-10-26T01:08:03;9.60;99.90
52895;DHT22;38759;53.396;6.722;2022-10-26T01:10:29;9.60;99.90
52895;DHT22;38759;53.396;6.722;2022-10-26T01:12:57;9.50;99.90
52895;DHT22;38759;53.396;6.722;2022-10-26T01:18:12;9.50;99.90
52895;DHT22;38759;53.396;6.722;2022-10-26T01:26:30;9.40;99.90
52895;DHT22;38759;53.396;6.722;2022-10-26T01:32:18;9.40;99.90
52895;DHT22;38759;53.396;6.722;2022-10-26T01:35:11;9.40;99.90
52895;DHT22;38759;53.396;6.722;2022-10-26T01:37:43;9.40;99.90
52895;DHT22;38759;53.396;6.722;2022-10-26T01:40:19;9.40;99.90
52895;DHT22;38759;53.396;6.722;2022-10-26T01:42:50;9.40;99.90
52895;DHT22;38759;53.396;6.722;2022-10-26T01:45:17;9.40;99.90
52895;DHT22;38759;53.396;6.722;2022-10-26T01:47:44;9.40;99.90
52895;DHT22;38759;53.396;6.722;2022-10-26T01:50:10;9.40;99.90
52895;DHT22;38759;53.396;6.722;2022-10-26T01:52:36;9.40;99.90
52895;DHT22;38759;53.396;6.722;2022-10-26T02:07:02;9.30;99.90
52895;DHT22;38759;53.396;6.722;2022-10-26T02:15:39;9.20;99.90
52895;DHT22;38759;53.396;6.722;2022-10-26T02:18:05;9.20;99.90
52895;DHT22;38759;53.396;6.722;2022-10-26T02:20:38;9.20;99.90
52895;DHT22;38759;53.396;6.722;2022-10-26T02:23:07;9.10;99.90
52895;DHT22;38759;53.396;6.722;2022-10-26T02:25:38;9.20;99.90
52895;DHT22;38759;53.396;6.722;2022-10-26T02:28:07;9.10;99.90
52895;DHT22;38759;53.396;6.722;2022-10-26T02:30:35;9.00;99.90
52895;DHT22;38759;53.396;6.722;2022-10-26T02:33:04;9.00;99.90
52895;DHT22;38759;53.396;6.722;2022-10-26T02:35:33;9.00;99.90
52895;DHT22;38759;53.396;6.722;2022-10-26T02:38:03;8.90;99.90
52895;DHT22;38759;53.396;6.722;2022-10-26T02:40:31;8.90;99.90
52895;DHT22;38759;53.396;6.722;2022-10-26T02:43:00;8.90;99.90
52895;DHT22;38759;53.396;6.722;2022-10-26T02:45:35;8.80;99.90
52895;DHT22;38759;53.396;6.722;2022-10-26T02:48:01;8.90;99.90
52895;DHT22;38759;53.396;6.722;2022-10-26T02:50:32;8.80;99.90
52895;DHT22;38759;53.396;6.722;2022-10-26T02:53:25;8.70;99.90
52895;DHT22;38759;53.396;6.722;2022-10-26T02:55:52;8.70;99.90
52895;DHT22;38759;53.396;6.722;2022-10-26T02:58:22;8.70;99.90
52895;DHT22;38759;53.396;6.722;2022-10-26T03:00:50;8.60;99.90
52895;DHT22;38759;53.396;6.722;2022-10-26T03:03:17;8.70;99.90
52895;DHT22;38759;53.396;6.722;2022-10-26T03:05:43;8.60;99.90
52895;DHT22;38759;53.396;6.722;2022-10-26T03:08:09;8.60;99.90
52895;DHT22;38759;53.396;6.722;2022-10-26T03:10:41;8.60;99.90
52895;DHT22;38759;53.396;6.722;2022-10-26T03:13:08;8.60;99.90
52895;DHT22;38759;53.396;6.722;2022-10-26T03:15:33;8.50;99.90
52895;DHT22;38759;53.396;6.722;2022-10-26T03:17:59;8.50;99.90
52895;DHT22;38759;53.396;6.722;2022-10-26T03:20:25;8.50;99.90
52895;DHT22;38759;53.396;6.722;2022-10-26T03:22:50;8.50;99.90
52895;DHT22;38759;53.396;6.722;2022-10-26T03:25:16;8.50;99.90
52895;DHT22;38759;53.396;6.722;2022-10-26T03:27:42;8.40;99.90
52895;DHT22;38759;53.396;6.722;2022-10-26T03:30:08;8.40;99.90
52895;DHT22;38759;53.396;6.722;2022-10-26T03:32:34;8.50;99.90
52895;DHT22;38759;53.396;6.722;2022-10-26T03:35:00;8.50;99.90
52895;DHT22;38759;53.396;6.722;2022-10-26T03:37:26;8.40;99.90
52895;DHT22;38759;53.396;6.722;2022-10-26T03:39:52;8.60;99.90
52895;DHT22;38759;53.396;6.722;2022-10-26T03:42:17;8.40;99.90
52895;DHT22;38759;53.396;6.722;2022-10-26T03:44:43;8.40;99.90
52895;DHT22;38759;53.396;6.722;2022-10-26T03:47:09;8.40;99.90
52895;DHT22;38759;53.396;6.722;2022-10-26T03:49:34;8.40;99.90
52895;DHT22;38759;53.396;6.722;2022-10-26T03:52:00;8.40;99.90
52895;DHT22;38759;53.396;6.722;2022-10-26T03:54:26;8.40;99.90
52895;DHT22;38759;53.396;6.722;2022-10-26T03:56:52;8.30;99.90
52895;DHT22;38759;53.396;6.722;2022-10-26T03:59:18;8.30;99.90
52895;DHT22;38759;53.396;6.722;2022-10-26T04:01:43;8.30;99.90
52895;DHT22;38759;53.396;6.722;2022-10-26T04:04:09;8.30;99.90
52895;DHT22;38759;53.396;6.722;2022-10-26T04:06:35;8.30;99.90
52895;DHT22;38759;53.396;6.722;2022-10-26T04:09:00;8.30;99.90
52895;DHT22;38759;53.396;6.722;2022-10-26T04:11:28;8.30;99.90
52895;DHT22;38759;53.396;6.722;2022-10-26T04:13:53;8.30;99.90
52895;DHT22;38759;53.396;6.722;2022-10-26T04:16:20;8.30;99.90
52895;DHT22;38759;53.396;6.722;2022-10-26T04:18:46;8.30;99.90
52895;DHT22;38759;53.396;6.722;2022-10-26T04:21:11;8.30;99.90
52895;DHT22;38759;53.396;6.722;2022-10-26T04:23:37;8.30;99.90
52895;DHT22;38759;53.396;6.722;2022-10-26T04:26:06;8.30;99.90
52895;DHT22;38759;53.396;6.722;2022-10-26T04:28:32;8.30;99.90
52895;DHT22;38759;53.396;6.722;2022-10-26T04:30:57;8.30;99.90
52895;DHT22;38759;53.396;6.722;2022-10-26T04:33:23;8.30;99.90
52895;DHT22;38759;53.396;6.722;2022-10-26T04:35:49;8.20;99.90
52895;DHT22;38759;53.396;6.722;2022-10-26T04:38:14;8.40;99.90
52895;DHT22;38759;53.396;6.722;2022-10-26T04:40:40;8.30;99.90
52895;DHT22;38759;53.396;6.722;2022-10-26T04:43:05;8.30;99.90
52895;DHT22;38759;53.396;6.722;2022-10-26T04:45:31;8.30;99.90
52895;DHT22;38759;53.396;6.722;2022-10-26T04:48:05;8.20;99.90
52895;DHT22;38759;53.396;6.722;2022-10-26T04:50:31;8.30;99.90
52895;DHT22;38759;53.396;6.722;2022-10-26T04:52:57;8.20;99.90
52895;DHT22;38759;53.396;6.722;2022-10-26T04:55:23;8.20;99.90
52895;DHT22;38759;53.396;6.722;2022-10-26T04:57:48;8.20;99.90
52895;DHT22;38759;53.396;6.722;2022-10-26T05:00:14;8.30;99.90
52895;DHT22;38759;53.396;6.722;2022-10-26T05:02:40;8.30;99.90
52895;DHT22;38759;53.396;6.722;2022-10-26T05:05:06;8.30;99.90
52895;DHT22;38759;53.396;6.722;2022-10-26T05:07:31;8.30;99.90
52895;DHT22;38759;53.396;6.722;2022-10-26T05:09:57;8.40;99.90
52895;DHT22;38759;53.396;6.722;2022-10-26T05:12:23;8.50;99.90
52895;DHT22;38759;53.396;6.722;2022-10-26T05:14:48;8.40;99.90
52895;DHT22;38759;53.396;6.722;2022-10-26T05:17:14;8.50;99.90
52895;DHT22;38759;53.396;6.722;2022-10-26T05:19:40;8.50;99.90
52895;DHT22;38759;53.396;6.722;2022-10-26T05:22:05;8.60;99.90
52895;DHT22;38759;53.396;6.722;2022-10-26T05:24:31;8.50;99.90
52895;DHT22;38759;53.396;6.722;2022-10-26T05:26:57;8.50;99.90
52895;DHT22;38759;53.396;6.722;2022-10-26T05:29:22;8.50;99.90
52895;DHT22;38759;53.396;6.722;2022-10-26T05:31:48;8.60;99.90
52895;DHT22;38759;53.396;6.722;2022-10-26T05:34:13;8.60;99.90
52895;DHT22;38759;53.396;6.722;2022-10-26T05:36:39;8.60;99.90
52895;DHT22;38759;53.396;6.722;2022-10-26T05:39:05;8.60;99.90
52895;DHT22;38759;53.396;6.722;2022-10-26T05:41:30;8.70;99.90
52895;DHT22;38759;53.396;6.722;2022-10-26T05:43:56;8.70;99.90
52895;DHT22;38759;53.396;6.722;2022-10-26T05:46:21;8.70;99.90
52895;DHT22;38759;53.396;6.722;2022-10-26T05:48:47;8.80;99.90
52895;DHT22;38759;53.396;6.722;2022-10-26T05:51:13;8.80;99.90
52895;DHT22;38759;53.396;6.722;2022-10-26T05:53:38;8.90;99.90
52895;DHT22;38759;53.396;6.722;2022-10-26T05:56:40;8.90;99.90
52895;DHT22;38759;53.396;6.722;2022-10-26T05:59:14;9.00;99.90
52895;DHT22;38759;53.396;6.722;2022-10-26T06:04:37;9.00;99.90
52895;DHT22;38759;53.396;6.722;2022-10-26T06:07:16;9.10;99.90
52895;DHT22;38759;53.396;6.722;2022-10-26T06:09:43;9.10;99.90
52895;DHT22;38759;53.396;6.722;2022-10-26T06:12:09;9.10;99.90
52895;DHT22;38759;53.396;6.722;2022-10-26T06:14:36;9.10;99.90
52895;DHT22;38759;53.396;6.722;2022-10-26T06:20:16;9.20;99.90
52895;DHT22;38759;53.396;6.722;2022-10-26T06:28:49;9.30;99.90
52895;DHT22;38759;53.396;6.722;2022-10-26T06:31:17;9.40;99.90
52895;DHT22;38759;53.396;6.722;2022-10-26T06:33:43;9.30;99.90
52895;DHT22;38759;53.396;6.722;2022-10-26T06:36:22;9.40;99.90
52895;DHT22;38759;53.396;6.722;2022-10-26T06:38:54;9.40;99.90
52895;DHT22;38759;53.396;6.722;2022-10-26T06:41:21;9.40;99.90
52895;DHT22;38759;53.396;6.722;2022-10-26T06:43:47;9.40;99.90
52895;DHT22;38759;53.396;6.722;2022-10-26T06:51:36;9.50;99.90
52895;DHT22;38759;53.396;6.722;2022-10-26T06:54:14;9.50;99.90
52895;DHT22;38759;53.396;6.722;2022-10-26T06:56:41;9.60;99.90
52895;DHT22;38759;53.396;6.722;2022-10-26T06:59:13;9.60;99.90
52895;DHT22;38759;53.396;6.722;2022-10-26T07:01:41;9.60;99.90
52895;DHT22;38759;53.396;6.722;2022-10-26T07:04:06;9.60;99.90
52895;DHT22;38759;53.396;6.722;2022-10-26T07:06:32;9.70;99.90
52895;DHT22;38759;53.396;6.722;2022-10-26T07:08:57;9.70;99.90
52895;DHT22;38759;53.396;6.722;2022-10-26T07:11:23;9.70;99.90
52895;DHT22;38759;53.396;6.722;2022-10-26T07:13:49;9.80;99.90
52895;DHT22;38759;53.396;6.722;2022-10-26T07:16:16;9.80;99.90
52895;DHT22;38759;53.396;6.722;2022-10-26T07:18:41;9.90;99.90
52895;DHT22;38759;53.396;6.722;2022-10-26T07:21:07;9.90;99.90
52895;DHT22;38759;53.396;6.722;2022-10-26T07:23:33;9.90;99.90
52895;DHT22;38759;53.396;6.722;2022-10-26T07:25:59;10.00;99.90
52895;DHT22;38759;53.396;6.722;2022-10-26T07:28:24;10.00;99.90
52895;DHT22;38759;53.396;6.722;2022-10-26T07:30:50;10.00;99.90
52895;DHT22;38759;53.396;6.722;2022-10-26T07:33:16;10.00;99.90
52895;DHT22;38759;53.396;6.722;2022-10-26T07:35:41;10.20;99.90
52895;DHT22;38759;53.396;6.722;2022-10-26T07:38:08;10.00;99.90
52895;DHT22;38759;53.396;6.722;2022-10-26T07:40:35;10.10;99.90
52895;DHT22;38759;53.396;6.722;2022-10-26T07:43:01;10.20;99.90
52895;DHT22;38759;53.396;6.722;2022-10-26T07:45:27;10.20;99.90
52895;DHT22;38759;53.396;6.722;2022-10-26T07:47:54;10.20;99.90
52895;DHT22;38759;53.396;6.722;2022-10-26T07:50:20;10.30;99.90
52895;DHT22;38759;53.396;6.722;2022-10-26T07:52:46;10.30;99.90
52895;DHT22;38759;53.396;6.722;2022-10-26T07:55:11;10.30;99.90
52895;DHT22;38759;53.396;6.722;2022-10-26T07:57:37;10.40;99.90
52895;DHT22;38759;53.396;6.722;2022-10-26T08:00:05;10.40;99.90
52895;DHT22;38759;53.396;6.722;2022-10-26T08:02:31;10.40;99.90
52895;DHT22;38759;53.396;6.722;2022-10-26T08:04:57;10.50;99.90
52895;DHT22;38759;53.396;6.722;2022-10-26T08:07:22;10.50;99.90
52895;DHT22;38759;53.396;6.722;2022-10-26T08:09:50;10.50;99.90
52895;DHT22;38759;53.396;6.722;2022-10-26T08:12:16;10.50;99.90
52895;DHT22;38759;53.396;6.722;2022-10-26T08:14:43;10.60;99.90
52895;DHT22;38759;53.396;6.722;2022-10-26T08:17:09;10.60;99.90
52895;DHT22;38759;53.396;6.722;2022-10-26T08:19:34;10.60;99.90
52895;DHT22;38759;53.396;6.722;2022-10-26T08:22:00;10.70;99.90
52895;DHT22;38759;53.396;6.722;2022-10-26T08:24:26;10.80;99.90
52895;DHT22;38759;53.396;6.722;2022-10-26T08:26:51;10.70;99.90
52895;DHT22;38759;53.396;6.722;2022-10-26T08:29:17;10.80;99.90
52895;DHT22;38759;53.396;6.722;2022-10-26T08:31:42;10.80;99.90
52895;DHT22;38759;53.396;6.722;2022-10-26T08:34:08;10.90;99.90
52895;DHT22;38759;53.396;6.722;2022-10-26T08:36:34;10.90;99.90
52895;DHT22;38759;53.396;6.722;2022-10-26T08:39:00;10.90;99.90
52895;DHT22;38759;53.396;6.722;2022-10-26T08:43:57;11.00;99.90
52895;DHT22;38759;53.396;6.722;2022-10-26T08:46:39;11.10;99.90
52895;DHT22;38759;53.396;6.722;2022-10-26T08:49:28;11.10;99.90
52895;DHT22;38759;53.396;6.722;2022-10-26T08:51:58;11.20;99.90
52895;DHT22;38759;53.396;6.722;2022-10-26T08:54:37;11.20;99.90
52895;DHT22;38759;53.396;6.722;2022-10-26T08:57:15;11.30;99.90
52895;DHT22;38759;53.396;6.722;2022-10-26T09:00:17;11.50;99.90
52895;DHT22;38759;53.396;6.722;2022-10-26T09:02:43;11.40;99.90
52895;DHT22;38759;53.396;6.722;2022-10-26T09:05:17;11.40;99.90
52895;DHT22;38759;53.396;6.722;2022-10-26T09:07:49;11.50;99.90
52895;DHT22;38759;53.396;6.722;2022-10-26T09:18:29;11.80;99.90
52895;DHT22;38759;53.396;6.722;2022-10-26T09:24:01;11.80;99.90
52895;DHT22;38759;53.396;6.722;2022-10-26T09:29:18;12.00;99.90
52895;DHT22;38759;53.396;6.722;2022-10-26T09:31:46;12.10;99.90
52895;DHT22;38759;53.396;6.722;2022-10-26T09:34:30;12.20;99.90
52895;DHT22;38759;53.396;6.722;2022-10-26T09:36:57;12.30;99.90
52895;DHT22;38759;53.396;6.722;2022-10-26T09:39:32;12.30;99.90
52895;DHT22;38759;53.396;6.722;2022-10-26T09:42:20;12.50;99.90
52895;DHT22;38759;53.396;6.722;2022-10-26T09:45:00;12.50;99.90
52895;DHT22;38759;53.396;6.722;2022-10-26T09:47:34;12.70;99.90
52895;DHT22;38759;53.396;6.722;2022-10-26T09:52:31;12.90;99.90
52895;DHT22;38759;53.396;6.722;2022-10-26T09:54:57;12.90;99.90
52895;DHT22;38759;53.396;6.722;2022-10-26T09:57:22;13.00;99.90
52895;DHT22;38759;53.396;6.722;2022-10-26T09:59:49;13.20;99.90
52895;DHT22;38759;53.396;6.722;2022-10-26T10:05:00;13.40;99.90
52895;DHT22;38759;53.396;6.722;2022-10-26T10:07:26;13.50;99.90
52895;DHT22;38759;53.396;6.722;2022-10-26T10:12:39;13.80;99.90
52895;DHT22;38759;53.396;6.722;2022-10-26T10:15:16;13.90;99.90
52895;DHT22;38759;53.396;6.722;2022-10-26T10:17:53;14.10;99.90
52895;DHT22;38759;53.396;6.722;2022-10-26T10:20:32;14.30;99.90
52895;DHT22;38759;53.396;6.722;2022-10-26T10:23:00;14.60;99.90
52895;DHT22;38759;53.396;6.722;2022-10-26T10:25:38;14.80;99.90
52895;DHT22;38759;53.396;6.722;2022-10-26T10:28:21;15.00;99.90
52895;DHT22;38759;53.396;6.722;2022-10-26T10:31:04;15.10;99.90
52895;DHT22;38759;53.396;6.722;2022-10-26T10:33:38;15.20;99.90
52895;DHT22;38759;53.396;6.722;2022-10-26T10:36:10;15.30;99.90
52895;DHT22;38759;53.396;6.722;2022-10-26T10:38:41;15.50;99.90
52895;DHT22;38759;53.396;6.722;2022-10-26T10:41:25;15.70;99.90
52895;DHT22;38759;53.396;6.722;2022-10-26T10:43:55;15.90;99.90
52895;DHT22;38759;53.396;6.722;2022-10-26T10:46:25;16.00;99.90
52895;DHT22;38759;53.396;6.722;2022-10-26T10:49:17;16.20;99.90
52895;DHT22;38759;53.396;6.722;2022-10-26T10:51:44;16.30;99.90
52895;DHT22;38759;53.396;6.722;2022-10-26T10:54:33;16.50;99.90
52895;DHT22;38759;53.396;6.722;2022-10-26T11:00:08;16.60;99.90
52895;DHT22;38759;53.396;6.722;2022-10-26T11:11:03;16.30;99.90
52895;DHT22;38759;53.396;6.722;2022-10-26T11:16:15;16.30;99.90
52895;DHT22;38759;53.396;6.722;2022-10-26T11:19:05;16.30;99.90
52895;DHT22;38759;53.396;6.722;2022-10-26T11:21:35;16.30;99.90
52895;DHT22;38759;53.396;6.722;2022-10-26T11:26:44;16.20;99.90
52895;DHT22;38759;53.396;6.722;2022-10-26T11:31:51;16.30;99.90
52895;DHT22;38759;53.396;6.722;2022-10-26T11:37:16;16.50;99.90
52895;DHT22;38759;53.396;6.722;2022-10-26T11:39:56;16.60;99.90
52895;DHT22;38759;53.396;6.722;2022-10-26T11:42:35;16.80;99.90
52895;DHT22;38759;53.396;6.722;2022-10-26T11:45:16;17.10;99.90
52895;DHT22;38759;53.396;6.722;2022-10-26T11:48:11;17.20;99.90
52895;DHT22;38759;53.396;6.722;2022-10-26T11:50:49;17.40;99.90
52895;DHT22;38759;53.396;6.722;2022-10-26T11:53:20;17.50;99.90
52895;DHT22;38759;53.396;6.722;2022-10-26T11:55:52;17.50;99.90
52895;DHT22;38759;53.396;6.722;2022-10-26T11:58:22;17.50;99.90
52895;DHT22;38759;53.396;6.722;2022-10-26T12:00:52;17.60;99.90
52895;DHT22;38759;53.396;6.722;2022-10-26T12:03:25;17.80;99.90
52895;DHT22;38759;53.396;6.722;2022-10-26T12:05:51;18.00;99.90
52895;DHT22;38759;53.396;6.722;2022-10-26T12:08:34;18.10;99.90
52895;DHT22;38759;53.396;6.722;2022-10-26T12:11:18;18.30;99.90
52895;DHT22;38759;53.396;6.722;2022-10-26T12:19:32;18.80;99.90
52895;DHT22;38759;53.396;6.722;2022-10-26T12:22:03;18.90;99.90
52895;DHT22;38759;53.396;6.722;2022-10-26T12:24:32;18.90;99.90
52895;DHT22;38759;53.396;6.722;2022-10-26T12:27:00;19.00;99.90
52895;DHT22;38759;53.396;6.722;2022-10-26T12:29:38;19.00;99.90
52895;DHT22;38759;53.396;6.722;2022-10-26T12:34:59;19.10;99.90
52895;DHT22;38759;53.396;6.722;2022-10-26T12:37:32;19.10;99.90
52895;DHT22;38759;53.396;6.722;2022-10-26T12:45:41;19.10;99.90
52895;DHT22;38759;53.396;6.722;2022-10-26T12:56:56;19.30;99.90
52895;DHT22;38759;53.396;6.722;2022-10-26T12:59:45;19.20;99.90
52895;DHT22;38759;53.396;6.722;2022-10-26T13:02:39;19.20;99.90
52895;DHT22;38759;53.396;6.722;2022-10-26T13:07:38;19.10;99.90
52895;DHT22;38759;53.396;6.722;2022-10-26T13:10:17;18.90;99.90
52895;DHT22;38759;53.396;6.722;2022-10-26T13:12:48;18.70;99.90
52895;DHT22;38759;53.396;6.722;2022-10-26T13:15:19;18.70;99.90
52895;DHT22;38759;53.396;6.722;2022-10-26T13:18:15;18.60;99.90
52895;DHT22;38759;53.396;6.722;2022-10-26T13:23:28;18.60;99.90
52895;DHT22;38759;53.396;6.722;2022-10-26T13:31:01;18.80;99.90
52895;DHT22;38759;53.396;6.722;2022-10-26T13:33:36;18.90;99.90
52895;DHT22;38759;53.396;6.722;2022-10-26T13:36:32;18.90;99.90
52895;DHT22;38759;53.396;6.722;2022-10-26T13:38:59;18.80;99.90
52895;DHT22;38759;53.396;6.722;2022-10-26T13:41:33;18.60;99.90
52895;DHT22;38759;53.396;6.722;2022-10-26T13:44:02;18.30;99.90
52895;DHT22;38759;53.396;6.722;2022-10-26T13:46:37;18.10;99.90
52895;DHT22;38759;53.396;6.722;2022-10-26T13:49:33;18.00;99.90
52895;DHT22;38759;53.396;6.722;2022-10-26T13:52:02;17.80;99.90
52895;DHT22;38759;53.396;6.722;2022-10-26T13:54:41;17.70;99.90
52895;DHT22;38759;53.396;6.722;2022-10-26T13:57:28;17.60;99.90
52895;DHT22;38759;53.396;6.722;2022-10-26T13:59:57;17.60;99.90
52895;DHT22;38759;53.396;6.722;2022-10-26T14:02:28;17.50;99.90
52895;DHT22;38759;53.396;6.722;2022-10-26T14:05:04;17.50;99.90
52895;DHT22;38759;53.396;6.722;2022-10-26T14:07:40;17.40;99.90
52895;DHT22;38759;53.396;6.722;2022-10-26T14:10:19;17.40;99.90
52895;DHT22;38759;53.396;6.722;2022-10-26T14:12:46;17.40;99.90
52895;DHT22;38759;53.396;6.722;2022-10-26T14:15:16;17.50;99.90
52895;DHT22;38759;53.396;6.722;2022-10-26T14:17:49;17.60;99.90
52895;DHT22;38759;53.396;6.722;2022-10-26T14:20:20;17.60;99.90
52895;DHT22;38759;53.396;6.722;2022-10-26T14:22:46;17.60;99.90
52895;DHT22;38759;53.396;6.722;2022-10-26T14:25:21;17.50;99.90
52895;DHT22;38759;53.396;6.722;2022-10-26T14:27:47;17.30;99.90
52895;DHT22;38759;53.396;6.722;2022-10-26T14:32:50;17.20;99.90
52895;DHT22;38759;53.396;6.722;2022-10-26T14:35:19;17.20;99.90
52895;DHT22;38759;53.396;6.722;2022-10-26T14:38:01;17.10;99.90
52895;DHT22;38759;53.396;6.722;2022-10-26T14:40:32;17.00;99.90
52895;DHT22;38759;53.396;6.722;2022-10-26T14:43:00;17.00;99.90
52895;DHT22;38759;53.396;6.722;2022-10-26T14:47:53;17.00;99.90
52895;DHT22;38759;53.396;6.722;2022-10-26T14:50:20;16.90;99.90
52895;DHT22;38759;53.396;6.722;2022-10-26T14:52:53;16.90;99.90
52895;DHT22;38759;53.396;6.722;2022-10-26T14:55:19;17.10;99.90
52895;DHT22;38759;53.396;6.722;2022-10-26T14:57:47;17.20;99.90
52895;DHT22;38759;53.396;6.722;2022-10-26T15:00:24;17.20;99.90
52895;DHT22;38759;53.396;6.722;2022-10-26T15:02:55;17.20;99.90
52895;DHT22;38759;53.396;6.722;2022-10-26T15:05:29;17.10;99.90
52895;DHT22;38759;53.396;6.722;2022-10-26T15:07:56;17.10;99.90
52895;DHT22;38759;53.396;6.722;2022-10-26T15:15:52;16.90;99.90
52895;DHT22;38759;53.396;6.722;2022-10-26T15:18:30;16.80;99.90
52895;DHT22;38759;53.396;6.722;2022-10-26T15:20:58;16.70;99.90
52895;DHT22;38759;53.396;6.722;2022-10-26T15:23:24;16.70;99.90
52895;DHT22;38759;53.396;6.722;2022-10-26T15:25:59;16.60;99.90
52895;DHT22;38759;53.396;6.722;2022-10-26T15:28:30;16.60;99.90
52895;DHT22;38759;53.396;6.722;2022-10-26T15:31:00;16.50;99.90
52895;DHT22;38759;53.396;6.722;2022-10-26T15:33:26;16.50;99.90
52895;DHT22;38759;53.396;6.722;2022-10-26T15:36:10;16.40;99.90
52895;DHT22;38759;53.396;6.722;2022-10-26T15:38:37;16.40;99.90
52895;DHT22;38759;53.396;6.722;2022-10-26T15:41:03;16.40;99.90
52895;DHT22;38759;53.396;6.722;2022-10-26T15:43:29;16.30;99.90
52895;DHT22;38759;53.396;6.722;2022-10-26T15:45:55;16.20;99.90
52895;DHT22;38759;53.396;6.722;2022-10-26T15:48:30;16.30;99.90
52895;DHT22;38759;53.396;6.722;2022-10-26T15:50:56;16.20;99.90
52895;DHT22;38759;53.396;6.722;2022-10-26T15:53:24;16.20;99.90
52895;DHT22;38759;53.396;6.722;2022-10-26T15:55:56;16.20;99.90
52895;DHT22;38759;53.396;6.722;2022-10-26T15:58:22;16.10;99.90
52895;DHT22;38759;53.396;6.722;2022-10-26T16:00:48;16.00;99.90
52895;DHT22;38759;53.396;6.722;2022-10-26T16:03:24;16.00;99.90
52895;DHT22;38759;53.396;6.722;2022-10-26T16:05:57;15.90;99.90
52895;DHT22;38759;53.396;6.722;2022-10-26T16:08:28;15.90;99.90
52895;DHT22;38759;53.396;6.722;2022-10-26T16:10:54;15.90;99.90
52895;DHT22;38759;53.396;6.722;2022-10-26T16:13:20;15.80;99.90
52895;DHT22;38759;53.396;6.722;2022-10-26T16:15:46;15.80;99.90
52895;DHT22;38759;53.396;6.722;2022-10-26T16:18:12;15.80;99.90
52895;DHT22;38759;53.396;6.722;2022-10-26T16:20:39;15.80;99.90
52895;DHT22;38759;53.396;6.722;2022-10-26T16:23:05;15.70;99.90
52895;DHT22;38759;53.396;6.722;2022-10-26T16:25:40;15.60;99.90
52895;DHT22;38759;53.396;6.722;2022-10-26T16:28:05;15.50;99.90
52895;DHT22;38759;53.396;6.722;2022-10-26T16:30:31;15.50;99.90
52895;DHT22;38759;53.396;6.722;2022-10-26T16:32:57;15.40;99.90
52895;DHT22;38759;53.396;6.722;2022-10-26T16:35:23;15.40;99.90
52895;DHT22;38759;53.396;6.722;2022-10-26T16:37:49;15.30;99.90
52895;DHT22;38759;53.396;6.722;2022-10-26T16:40:14;15.30;99.90
52895;DHT22;38759;53.396;6.722;2022-10-26T16:42:40;15.30;99.90
52895;DHT22;38759;53.396;6.722;2022-10-26T16:45:10;15.30;99.90
52895;DHT22;38759;53.396;6.722;2022-10-26T16:47:36;15.20;99.90
52895;DHT22;38759;53.396;6.722;2022-10-26T16:50:05;15.20;99.90
52895;DHT22;38759;53.396;6.722;2022-10-26T16:52:33;15.20;99.90
52895;DHT22;38759;53.396;6.722;2022-10-26T16:54:59;15.20;99.90
52895;DHT22;38759;53.396;6.722;2022-10-26T16:57:24;15.10;99.90
52895;DHT22;38759;53.396;6.722;2022-10-26T16:59:50;15.10;99.90
52895;DHT22;38759;53.396;6.722;2022-10-26T17:02:15;15.10;99.90
52895;DHT22;38759;53.396;6.722;2022-10-26T17:04:41;15.10;99.90
52895;DHT22;38759;53.396;6.722;2022-10-26T17:07:07;15.10;99.90
52895;DHT22;38759;53.396;6.722;2022-10-26T17:09:33;15.10;99.90
52895;DHT22;38759;53.396;6.722;2022-10-26T17:11:58;15.10;99.90
52895;DHT22;38759;53.396;6.722;2022-10-26T17:14:24;15.10;99.90
52895;DHT22;38759;53.396;6.722;2022-10-26T17:16:50;15.00;99.90
52895;DHT22;38759;53.396;6.722;2022-10-26T17:19:15;15.00;99.90
52895;DHT22;38759;53.396;6.722;2022-10-26T17:21:41;15.00;99.90
52895;DHT22;38759;53.396;6.722;2022-10-26T17:24:09;15.00;99.90
52895;DHT22;38759;53.396;6.722;2022-10-26T17:26:35;15.00;99.90
52895;DHT22;38759;53.396;6.722;2022-10-26T17:29:01;14.90;99.90
52895;DHT22;38759;53.396;6.722;2022-10-26T17:31:27;14.90;99.90
52895;DHT22;38759;53.396;6.722;2022-10-26T17:33:53;14.90;99.90
52895;DHT22;38759;53.396;6.722;2022-10-26T17:36:21;14.90;99.90
52895;DHT22;38759;53.396;6.722;2022-10-26T17:38:48;14.80;99.90
52895;DHT22;38759;53.396;6.722;2022-10-26T17:41:16;14.80;99.90
52895;DHT22;38759;53.396;6.722;2022-10-26T17:43:43;14.70;99.90
52895;DHT22;38759;53.396;6.722;2022-10-26T17:46:12;14.70;99.90
52895;DHT22;38759;53.396;6.722;2022-10-26T17:48:37;14.70;99.90
52895;DHT22;38759;53.396;6.722;2022-10-26T17:51:05;14.70;99.90
52895;DHT22;38759;53.396;6.722;2022-10-26T17:53:31;14.70;99.90
52895;DHT22;38759;53.396;6.722;2022-10-26T17:56:01;14.70;99.90
52895;DHT22;38759;53.396;6.722;2022-10-26T17:58:27;14.70;99.90
52895;DHT22;38759;53.396;6.722;2022-10-26T18:00:53;14.60;99.90
52895;DHT22;38759;53.396;6.722;2022-10-26T18:03:19;14.60;99.90
52895;DHT22;38759;53.396;6.722;2022-10-26T18:05:49;14.70;99.90
52895;DHT22;38759;53.396;6.722;2022-10-26T18:08:14;14.70;99.90
52895;DHT22;38759;53.396;6.722;2022-10-26T18:10:50;14.60;99.90
52895;DHT22;38759;53.396;6.722;2022-10-26T18:13:17;14.60;99.90